GCTS METAR and TAF | Updated Today

GCTS METAR

Tenerife South Airport

Observation time: 15 min. ago

GCTS 070900Z 06012KT 9999 FEW030 SCT110 BKN130 18/14 Q1025 NOSIG

Need help? Read our tutorial on how to read METARs or read the parsed version below.

Tenerife South Airport (GCTS) METAR

  • Weather conditions on Tue, 07 Dec 2021 09:00:00 +0000 (15 min. ago):
  • Present conditions: Dry
  • Clouds: A few at 914 meters; scattered at 3353 meters; broken sky at 3962 meters
  • Visibility: Greater than 10 km
  • Wind: 60 degrees at 12 knots
  • Temperature: 18 celsius
  • Dew point: 14 celsius
  • Pressure: 1025 millibars
  • Remarks: None


Useful to know...

GCTS TAF

Tenerife South Airport

TAF GCTS 070800Z 0709/0809 05015KT 9999 FEW035 TX24/0713Z TN17/0806Z
Observation time: 75 min. ago
Need help? Read our tutorial on how to read TAFs or read the parsed version below.

Parsed version of TAF for Tenerife South Airport (GCTS)

  • From 07 December at 09:00 UTC, to day 08 of the month at 09:00 UTC
  • Clouds: A few at 1067 meters
  • Visibility: Greater than 10 km
  • Wind: 50 degrees at 15

Airports near GCTS

GCGM Weather
Region: Alajero, La Gomera Island

La Gomera Airport

Not found in our database
GCXO Weather
IATA: TFN
Region: Tenerife Island

Tenerife Norte Airport

Found in our database